createdAt,value
2022-12-11T00:00:53.223Z,3.77
2022-12-11T00:06:20.177Z,3.73
2022-12-11T00:11:24.041Z,3.66
2022-12-11T00:16:28.352Z,3.65
2022-12-11T00:21:35.491Z,3.62
2022-12-11T00:26:39.297Z,3.63
2022-12-11T00:31:43.187Z,3.70
2022-12-11T00:36:46.913Z,3.74
2022-12-11T00:41:57.138Z,3.75
2022-12-11T00:47:03.466Z,3.74
2022-12-11T00:52:07.708Z,3.72
2022-12-11T00:57:11.615Z,3.69
2022-12-11T01:02:15.839Z,3.64
2022-12-11T01:07:24.382Z,3.62
2022-12-11T01:12:29.172Z,3.59
2022-12-11T01:17:36.599Z,3.56
2022-12-11T01:22:40.864Z,3.52
2022-12-11T01:27:50.214Z,3.54
2022-12-11T01:33:02.022Z,3.61
2022-12-11T01:38:11.074Z,3.70
2022-12-11T01:43:16.228Z,3.76
2022-12-11T01:48:27.934Z,3.75
2022-12-11T01:53:37.430Z,3.69
2022-12-11T01:58:50.276Z,3.66
2022-12-11T02:03:56.410Z,3.62
2022-12-11T02:09:01.463Z,3.58
2022-12-11T02:14:46.868Z,3.54
2022-12-11T02:20:11.156Z,3.48
2022-12-11T02:26:00.555Z,3.43
2022-12-11T02:31:10.167Z,3.45
2022-12-11T02:36:18.655Z,3.51
2022-12-11T02:41:24.728Z,3.55
2022-12-11T02:46:30.081Z,3.54
2022-12-11T02:51:41.585Z,3.52
2022-12-11T02:57:03.020Z,3.49
2022-12-11T03:02:07.990Z,3.45
2022-12-11T03:07:32.268Z,3.42
2022-12-11T03:12:39.596Z,3.38
2022-12-11T03:18:06.217Z,3.36
2022-12-11T03:23:22.077Z,3.33
2022-12-11T03:28:44.738Z,3.29
2022-12-11T03:33:53.710Z,3.30
2022-12-11T03:39:08.467Z,3.38
2022-12-11T03:44:33.347Z,3.44
2022-12-11T03:49:45.471Z,3.46
2022-12-11T03:54:51.315Z,3.45
2022-12-11T04:00:19.176Z,3.39
2022-12-11T04:05:23.165Z,3.34
2022-12-11T04:10:29.800Z,3.26
2022-12-11T04:15:34.688Z,3.24
2022-12-11T04:20:57.290Z,3.22
2022-12-11T04:26:11.544Z,3.17
2022-12-11T04:31:20.463Z,3.12
2022-12-11T04:36:40.671Z,3.13
2022-12-11T04:41:48.224Z,3.17
2022-12-11T04:46:52.071Z,3.18
2022-12-11T05:03:01.165Z,3.11
2022-12-11T05:08:06.643Z,3.08
2022-12-11T05:13:11.772Z,3.03
2022-12-11T05:18:16.318Z,3.02
2022-12-11T05:23:23.384Z,3.00
2022-12-11T05:28:30.054Z,2.97
2022-12-11T05:33:34.570Z,2.94
2022-12-11T05:38:38.688Z,2.95
2022-12-11T05:43:45.520Z,2.97
2022-12-11T05:54:12.031Z,3.05
2022-12-11T05:59:19.979Z,3.05
2022-12-11T06:04:27.449Z,3.03
2022-12-11T06:09:36.397Z,2.99
2022-12-11T06:14:53.181Z,2.99
2022-12-11T06:19:59.529Z,3.09
2022-12-11T06:40:43.113Z,2.80
2022-12-11T06:56:42.658Z,2.93
2022-12-11T07:07:57.500Z,2.80
2022-12-11T07:13:04.989Z,2.75
2022-12-11T07:18:14.643Z,2.71
2022-12-11T07:23:24.849Z,2.69
2022-12-11T07:28:28.976Z,2.70
2022-12-11T07:39:06.122Z,2.66
2022-12-11T07:44:10.392Z,2.63
2022-12-11T07:49:17.692Z,2.59
2022-12-11T07:54:34.999Z,2.59
2022-12-11T07:59:42.233Z,2.64
2022-12-11T08:04:55.510Z,2.74
2022-12-11T08:10:04.526Z,2.80
2022-12-11T08:15:10.491Z,2.82
2022-12-11T08:20:20.113Z,2.85
2022-12-11T08:25:27.324Z,2.94
2022-12-11T08:30:56.174Z,2.87
2022-12-11T08:36:04.012Z,2.83
2022-12-11T08:41:14.552Z,2.76
2022-12-11T08:46:17.799Z,2.68
2022-12-11T08:51:23.293Z,2.67
2022-12-11T08:56:27.640Z,2.66
2022-12-11T09:01:30.788Z,2.65
2022-12-11T09:06:33.940Z,2.65
2022-12-11T09:11:37.948Z,2.60
2022-12-11T09:16:41.056Z,2.57
2022-12-11T09:21:45.177Z,2.70
2022-12-11T09:26:48.499Z,2.75
2022-12-11T09:31:51.499Z,2.76
2022-12-11T09:36:54.841Z,2.71
2022-12-11T09:42:20.824Z,2.69
2022-12-11T09:47:56.702Z,2.73
2022-12-11T09:53:03.366Z,2.80
2022-12-11T09:58:27.846Z,2.77
2022-12-11T10:03:43.190Z,2.68
2022-12-11T10:09:01.159Z,2.58
2022-12-11T10:14:30.593Z,2.58
2022-12-11T10:19:37.075Z,2.59
2022-12-11T10:30:40.161Z,2.80
2022-12-11T10:35:57.742Z,2.76
2022-12-11T10:41:10.628Z,2.74
2022-12-11T10:46:21.107Z,2.74
2022-12-11T10:51:32.995Z,2.77
2022-12-11T10:56:38.766Z,2.76
2022-12-11T11:01:47.922Z,2.75
2022-12-11T11:07:45.351Z,2.66
2022-12-11T11:12:50.697Z,2.54
2022-12-11T11:17:57.693Z,2.48
2022-12-11T11:23:14.616Z,2.42
2022-12-11T11:28:27.660Z,2.39
2022-12-11T11:33:33.476Z,2.36
2022-12-11T11:38:59.172Z,2.29
2022-12-11T11:44:07.450Z,2.30
2022-12-11T11:49:23.759Z,2.30
2022-12-11T11:54:51.526Z,2.29
2022-12-11T12:00:09.933Z,2.25
2022-12-11T12:05:20.392Z,2.26
2022-12-11T12:10:35.155Z,2.31
2022-12-11T12:15:55.141Z,2.31
2022-12-11T12:21:14.704Z,2.32
2022-12-11T12:26:30.393Z,2.32
2022-12-11T12:32:00.917Z,2.30
2022-12-11T12:37:22.430Z,2.28
2022-12-11T12:42:43.117Z,2.20
2022-12-11T12:47:53.188Z,2.20
2022-12-11T12:53:01.148Z,2.31
2022-12-11T12:58:30.730Z,2.32
2022-12-11T13:04:07.336Z,2.34
2022-12-11T13:09:27.735Z,2.46
2022-12-11T13:20:14.871Z,2.65
2022-12-11T13:26:02.434Z,2.56
2022-12-11T13:38:13.532Z,2.45
2022-12-11T13:43:20.438Z,2.29
2022-12-11T13:48:32.698Z,2.20
2022-12-11T13:53:35.764Z,2.15
2022-12-11T13:58:39.688Z,2.11
2022-12-11T14:04:02.611Z,2.06
2022-12-11T14:09:07.299Z,2.26
2022-12-11T14:14:31.753Z,2.29
2022-12-11T14:19:34.973Z,2.32
2022-12-11T14:30:53.435Z,2.26
2022-12-11T14:35:56.980Z,2.20
2022-12-11T14:41:11.876Z,2.15
2022-12-11T14:46:23.028Z,2.17
2022-12-11T14:51:28.897Z,2.16
2022-12-11T14:56:32.953Z,2.20
2022-12-11T15:01:39.368Z,2.06
2022-12-11T15:06:47.853Z,1.97
2022-12-11T15:11:51.717Z,1.86
2022-12-11T15:16:57.571Z,2.02
2022-12-11T15:22:06.079Z,2.19
2022-12-11T15:27:24.421Z,2.08
2022-12-11T15:32:30.904Z,2.00
2022-12-11T15:37:40.528Z,1.98
2022-12-11T15:42:44.774Z,1.87
2022-12-11T15:47:56.652Z,1.78
2022-12-11T15:53:01.935Z,1.73
2022-12-11T15:58:09.636Z,1.67
2022-12-11T16:03:15.838Z,1.54
2022-12-11T16:08:28.088Z,1.48
2022-12-11T16:13:31.697Z,1.36
2022-12-11T16:18:35.534Z,1.31
2022-12-11T16:23:39.316Z,1.27
2022-12-11T16:28:46.497Z,1.19
2022-12-11T16:33:50.197Z,1.14
2022-12-11T16:38:54.462Z,1.24
2022-12-11T16:44:01.049Z,1.29
2022-12-11T16:49:04.814Z,1.25
2022-12-11T16:54:08.130Z,1.25
2022-12-11T16:59:13.426Z,1.28
2022-12-11T17:04:18.434Z,1.29
2022-12-11T17:09:21.492Z,1.28
2022-12-11T17:20:31.287Z,1.28
2022-12-11T17:26:03.582Z,1.25
2022-12-11T17:31:10.797Z,1.25
2022-12-11T17:36:20.897Z,1.20
2022-12-11T17:41:24.465Z,1.17
2022-12-11T17:46:27.718Z,1.12
2022-12-11T17:51:30.884Z,1.07
2022-12-11T17:56:36.255Z,0.98
2022-12-11T18:01:39.384Z,1.04
2022-12-11T18:06:42.553Z,1.09
2022-12-11T18:11:45.608Z,1.05
2022-12-11T18:16:48.935Z,1.10
2022-12-11T18:21:52.100Z,1.18
2022-12-11T18:26:55.131Z,1.16
2022-12-11T18:31:58.270Z,1.11
2022-12-11T18:37:02.796Z,1.08
2022-12-11T18:42:33.883Z,1.09
2022-12-11T18:47:29.747Z,1.08
2022-12-11T18:52:33.337Z,1.12
2022-12-11T18:57:49.539Z,1.11
2022-12-11T19:08:52.461Z,1.04
2022-12-11T19:14:12.244Z,1.04
2022-12-11T19:20:40.270Z,1.05
2022-12-11T19:31:33.485Z,0.89
2022-12-11T19:36:43.706Z,0.90
2022-12-11T19:41:47.383Z,1.07
2022-12-11T19:46:50.599Z,1.13
2022-12-11T19:51:53.889Z,1.11
2022-12-11T19:56:57.000Z,1.16
2022-12-11T20:02:00.171Z,1.41
2022-12-11T20:07:04.476Z,1.35
2022-12-11T20:12:10.438Z,1.21
2022-12-11T20:17:15.020Z,1.16
2022-12-11T20:22:18.572Z,1.10
2022-12-11T20:27:21.906Z,0.98
2022-12-11T20:32:25.893Z,0.88
2022-12-11T20:37:29.451Z,0.83
2022-12-11T20:42:34.277Z,0.80
2022-12-11T20:47:37.494Z,0.77
2022-12-11T20:52:40.953Z,0.77
2022-12-11T20:57:45.329Z,0.73
2022-12-11T21:02:55.133Z,0.67
2022-12-11T21:08:01.923Z,0.66
2022-12-11T21:13:06.389Z,0.59
2022-12-11T21:18:18.844Z,0.54
2022-12-11T21:23:22.981Z,0.53
2022-12-11T21:28:30.543Z,0.59
2022-12-11T21:33:36.208Z,0.62
2022-12-11T21:38:48.116Z,0.71
2022-12-11T21:49:19.050Z,0.66
2022-12-11T21:54:23.307Z,0.61
2022-12-11T21:59:30.153Z,0.59
2022-12-11T22:04:34.386Z,0.58
2022-12-11T22:09:38.258Z,0.48
2022-12-11T22:14:45.133Z,0.40
2022-12-11T22:19:52.705Z,0.40
2022-12-11T22:25:04.445Z,0.40
2022-12-11T22:30:09.258Z,0.38
2022-12-11T22:35:15.852Z,0.33
2022-12-11T22:40:32.390Z,0.27
2022-12-11T22:45:40.158Z,0.28
2022-12-11T22:50:44.768Z,0.24
2022-12-11T23:01:27.426Z,0.34
2022-12-11T23:06:31.312Z,0.44
2022-12-11T23:11:38.566Z,0.49
2022-12-11T23:16:43.229Z,0.46
2022-12-11T23:21:47.407Z,0.37
2022-12-11T23:26:51.586Z,0.33
2022-12-11T23:31:55.856Z,0.28
2022-12-11T23:37:00.785Z,0.24
2022-12-11T23:42:13.392Z,0.25
2022-12-11T23:47:17.559Z,0.19
2022-12-11T23:52:23.000Z,0.17
2022-12-11T23:57:28.851Z,0.14
